createdAt,value
2022-12-09T00:02:25.343Z,15.00
2022-12-09T00:04:53.307Z,17.33
2022-12-09T00:07:20.940Z,17.20
2022-12-09T00:09:48.420Z,22.03
2022-12-09T00:12:16.141Z,19.60
2022-12-09T00:14:45.028Z,17.97
2022-12-09T00:17:12.775Z,19.63
2022-12-09T00:19:40.590Z,15.43
2022-12-09T00:22:08.186Z,24.03
2022-12-09T00:24:35.739Z,13.50
2022-12-09T00:27:03.438Z,15.57
2022-12-09T00:29:31.169Z,17.53
2022-12-09T00:32:00.221Z,21.73
2022-12-09T00:34:27.985Z,19.80
2022-12-09T00:36:55.657Z,20.40
2022-12-09T00:39:23.263Z,20.40
2022-12-09T00:41:51.593Z,20.63
2022-12-09T00:44:19.456Z,20.13
2022-12-09T00:46:47.386Z,17.47
2022-12-09T00:49:17.180Z,17.07
2022-12-09T00:51:45.141Z,21.23
2022-12-09T00:54:13.058Z,18.33
2022-12-09T00:56:40.944Z,23.23
2022-12-09T00:59:08.572Z,22.90
2022-12-09T01:01:36.465Z,17.73
2022-12-09T01:04:08.767Z,18.80
2022-12-09T01:06:38.020Z,22.53
2022-12-09T01:09:06.018Z,23.63
2022-12-09T01:11:33.799Z,23.97
2022-12-09T01:14:02.249Z,20.17
2022-12-09T01:16:31.741Z,23.93
2022-12-09T01:19:00.457Z,19.20
2022-12-09T01:21:27.995Z,21.60
2022-12-09T01:23:56.990Z,22.83
2022-12-09T01:26:24.474Z,18.50
2022-12-09T01:28:52.927Z,18.90
2022-12-09T01:31:22.524Z,20.03
2022-12-09T01:33:50.112Z,18.90
2022-12-09T01:36:18.697Z,21.87
2022-12-09T01:38:46.611Z,21.37
2022-12-09T01:41:16.059Z,18.77
2022-12-09T01:43:44.073Z,17.40
2022-12-09T01:46:12.128Z,27.93
2022-12-09T01:48:41.543Z,18.43
2022-12-09T01:51:11.864Z,19.13
2022-12-09T01:53:40.949Z,21.90
2022-12-09T01:56:12.007Z,23.30
2022-12-09T01:58:41.203Z,20.80
2022-12-09T02:01:08.791Z,18.93
2022-12-09T02:03:36.501Z,19.30
2022-12-09T02:06:04.494Z,20.13
2022-12-09T02:08:32.212Z,20.93
2022-12-09T02:11:03.259Z,21.90
2022-12-09T02:13:35.765Z,22.97
2022-12-09T02:16:07.811Z,21.20
2022-12-09T02:18:39.772Z,19.27
2022-12-09T02:21:10.700Z,20.80
2022-12-09T02:23:40.736Z,26.57
2022-12-09T02:26:14.556Z,17.20
2022-12-09T02:28:51.254Z,23.97
2022-12-09T02:31:24.828Z,20.87
2022-12-09T02:34:03.129Z,21.17
2022-12-09T02:36:33.217Z,21.93
2022-12-09T02:39:01.505Z,26.87
2022-12-09T02:41:30.696Z,17.77
2022-12-09T02:44:01.228Z,21.70
2022-12-09T02:46:29.325Z,18.73
2022-12-09T02:48:57.937Z,19.60
2022-12-09T02:51:28.594Z,16.93
2022-12-09T02:53:58.457Z,19.90
2022-12-09T02:56:27.912Z,21.50
2022-12-09T02:58:55.855Z,24.73
2022-12-09T03:01:24.902Z,24.00
2022-12-09T03:03:54.435Z,23.57
2022-12-09T03:06:26.382Z,28.97
2022-12-09T03:08:58.358Z,22.80
2022-12-09T03:11:26.522Z,19.30
2022-12-09T03:14:00.040Z,27.03
2022-12-09T03:16:31.056Z,19.43
2022-12-09T03:19:01.828Z,21.57
2022-12-09T03:21:30.746Z,21.47
2022-12-09T03:24:01.266Z,20.53
2022-12-09T03:26:30.256Z,18.80
2022-12-09T03:28:59.826Z,23.20
2022-12-09T03:31:30.036Z,22.07
2022-12-09T03:34:01.322Z,22.73
2022-12-09T03:36:30.555Z,21.80
2022-12-09T03:39:00.251Z,18.20
2022-12-09T03:41:29.589Z,19.40
2022-12-09T03:43:59.960Z,21.97
2022-12-09T03:46:29.290Z,18.77
2022-12-09T03:48:57.412Z,21.20
2022-12-09T03:51:27.393Z,21.67
2022-12-09T03:53:58.811Z,21.80
2022-12-09T03:56:28.484Z,23.53
2022-12-09T03:58:58.597Z,19.37
2022-12-09T04:01:27.533Z,28.13
2022-12-09T04:03:57.148Z,23.90
2022-12-09T04:06:25.295Z,22.37
2022-12-09T04:08:55.763Z,26.93
2022-12-09T04:11:28.561Z,21.27
2022-12-09T04:13:56.410Z,25.27
2022-12-09T04:16:24.468Z,23.10
2022-12-09T04:18:52.351Z,21.83
2022-12-09T04:21:20.234Z,22.90
2022-12-09T04:23:47.971Z,24.77
2022-12-09T04:26:18.257Z,22.43
2022-12-09T04:28:47.253Z,21.53
2022-12-09T04:31:16.509Z,24.77
2022-12-09T04:33:44.543Z,24.67
2022-12-09T04:36:13.444Z,23.00
2022-12-09T04:38:41.410Z,26.00
2022-12-09T04:41:09.195Z,26.57
2022-12-09T04:43:39.712Z,24.73
2022-12-09T04:46:11.911Z,22.20
2022-12-09T04:48:39.867Z,23.80
2022-12-09T04:51:09.749Z,24.17
2022-12-09T04:53:37.567Z,21.37
2022-12-09T04:56:06.240Z,20.53
2022-12-09T04:58:34.329Z,27.57
2022-12-09T05:01:06.166Z,27.00
2022-12-09T05:03:35.500Z,21.37
2022-12-09T05:06:04.864Z,21.77
2022-12-09T05:08:32.835Z,22.00
2022-12-09T05:11:01.668Z,22.53
2022-12-09T05:13:29.795Z,23.27
2022-12-09T05:16:00.602Z,18.67
2022-12-09T05:18:28.417Z,18.67
2022-12-09T05:20:57.992Z,21.90
2022-12-09T05:23:26.045Z,21.10
2022-12-09T05:25:56.029Z,22.47
2022-12-09T05:28:23.703Z,23.60
2022-12-09T05:30:51.804Z,20.47
2022-12-09T05:33:19.740Z,21.47
2022-12-09T05:35:52.703Z,21.17
2022-12-09T05:38:23.574Z,22.33
2022-12-09T05:40:51.406Z,20.83
2022-12-09T05:43:19.509Z,27.00
2022-12-09T05:45:47.272Z,21.53
2022-12-09T05:48:15.064Z,27.57
2022-12-09T05:50:42.951Z,21.83
2022-12-09T05:53:10.625Z,24.10
2022-12-09T05:55:42.304Z,18.90
2022-12-09T05:58:10.324Z,20.57
2022-12-09T06:00:38.261Z,23.23
2022-12-09T06:03:06.165Z,17.97
2022-12-09T06:05:34.576Z,20.37
2022-12-09T06:08:06.682Z,19.23
2022-12-09T06:10:34.942Z,20.87
2022-12-09T06:13:04.289Z,21.93
2022-12-09T06:15:33.720Z,20.43
2022-12-09T06:18:02.070Z,21.90
2022-12-09T06:20:30.007Z,20.87
2022-12-09T06:22:58.234Z,20.50
2022-12-09T06:25:26.180Z,26.17
2022-12-09T06:27:53.898Z,20.37
2022-12-09T06:30:22.893Z,27.47
2022-12-09T06:32:50.506Z,25.47
2022-12-09T06:35:19.850Z,23.67
2022-12-09T06:37:48.176Z,26.77
2022-12-09T06:40:16.370Z,24.93
2022-12-09T06:42:44.039Z,27.20
2022-12-09T06:45:12.932Z,25.97
2022-12-09T06:47:42.237Z,39.40
2022-12-09T06:50:10.919Z,28.60
2022-12-09T06:52:40.050Z,39.80
2022-12-09T06:55:12.597Z,34.60
2022-12-09T06:57:40.756Z,33.50
2022-12-09T07:00:09.167Z,26.67
2022-12-09T07:02:37.445Z,25.23
2022-12-09T07:05:08.022Z,23.97
2022-12-09T07:07:36.255Z,27.50
2022-12-09T07:10:04.107Z,24.53
2022-12-09T07:12:32.154Z,22.67
2022-12-09T07:14:59.978Z,27.87
2022-12-09T07:17:27.998Z,22.30
2022-12-09T07:19:57.251Z,28.03
2022-12-09T07:22:28.354Z,26.37
2022-12-09T07:24:56.012Z,35.50
2022-12-09T07:27:23.944Z,23.97
2022-12-09T07:29:51.730Z,27.27
2022-12-09T07:32:19.497Z,29.47
2022-12-09T07:34:47.347Z,25.00
2022-12-09T07:37:15.804Z,30.23
2022-12-09T07:39:44.888Z,26.13
2022-12-09T07:42:12.630Z,27.23
2022-12-09T07:44:40.563Z,34.03
2022-12-09T07:47:08.525Z,28.83
2022-12-09T07:49:36.564Z,24.90
2022-12-09T07:52:04.455Z,30.97
2022-12-09T07:54:32.043Z,28.57
2022-12-09T07:57:01.095Z,31.97
2022-12-09T07:59:29.018Z,36.87
2022-12-09T08:02:01.088Z,36.00
2022-12-09T08:04:32.031Z,35.17
2022-12-09T08:07:00.644Z,31.43
2022-12-09T08:09:28.584Z,37.00
2022-12-09T08:11:56.725Z,36.27
2022-12-09T08:14:28.490Z,26.87
2022-12-09T08:16:56.317Z,27.53
2022-12-09T08:19:24.568Z,31.27
2022-12-09T08:21:54.760Z,28.40
2022-12-09T08:24:24.965Z,24.57
2022-12-09T08:26:52.942Z,26.93
2022-12-09T08:29:23.685Z,25.87
2022-12-09T08:31:53.051Z,23.37
2022-12-09T08:34:20.880Z,23.27
2022-12-09T08:36:48.963Z,25.50
2022-12-09T08:39:16.907Z,27.07
2022-12-09T08:41:44.713Z,27.50
2022-12-09T08:44:13.650Z,24.13
2022-12-09T08:46:43.559Z,22.00
2022-12-09T08:49:13.526Z,28.10
2022-12-09T08:51:41.473Z,28.73
2022-12-09T08:54:09.867Z,25.77
2022-12-09T08:56:37.539Z,27.07
2022-12-09T08:59:05.423Z,30.63
2022-12-09T09:01:35.632Z,43.27
2022-12-09T09:04:05.399Z,33.27
2022-12-09T09:06:35.428Z,29.70
2022-12-09T09:09:03.378Z,27.87
2022-12-09T09:11:31.665Z,26.33
2022-12-09T09:13:59.653Z,25.23
2022-12-09T09:16:28.324Z,24.93
2022-12-09T09:18:56.461Z,32.60
2022-12-09T09:21:26.851Z,29.10
2022-12-09T09:23:56.350Z,31.83
2022-12-09T09:26:28.151Z,23.70
2022-12-09T09:28:56.458Z,35.80
2022-12-09T09:31:25.789Z,39.00
2022-12-09T09:33:53.993Z,33.67
2022-12-09T09:36:23.854Z,32.40
2022-12-09T09:38:53.147Z,33.87
2022-12-09T09:41:26.339Z,33.37
2022-12-09T09:43:55.246Z,33.80
2022-12-09T09:46:29.387Z,27.47
2022-12-09T09:48:57.696Z,31.30
2022-12-09T09:51:26.086Z,36.80
2022-12-09T09:53:54.842Z,38.90
2022-12-09T09:56:27.944Z,37.13
2022-12-09T09:59:01.874Z,31.63
2022-12-09T10:01:33.812Z,30.03
2022-12-09T10:04:04.674Z,35.93
2022-12-09T10:06:36.441Z,34.83
2022-12-09T10:09:05.860Z,34.90
2022-12-09T10:11:40.281Z,33.67
2022-12-09T10:14:15.373Z,33.83
2022-12-09T10:16:44.607Z,41.30
2022-12-09T10:19:17.296Z,33.97
2022-12-09T10:21:46.109Z,35.27
2022-12-09T10:24:20.003Z,30.93
2022-12-09T10:26:53.261Z,30.87
2022-12-09T10:29:25.233Z,37.67
2022-12-09T10:31:53.038Z,33.37
2022-12-09T10:34:21.201Z,32.87
2022-12-09T10:36:49.374Z,28.73
2022-12-09T10:39:18.987Z,32.23
2022-12-09T10:42:06.996Z,33.13
2022-12-09T10:44:36.174Z,33.70
2022-12-09T10:47:05.348Z,32.60
2022-12-09T10:49:34.813Z,35.53
2022-12-09T10:52:04.636Z,38.63
2022-12-09T10:54:35.181Z,37.20
2022-12-09T10:57:06.427Z,32.97
2022-12-09T10:59:34.798Z,37.40
2022-12-09T11:02:04.798Z,39.17
2022-12-09T11:04:35.277Z,34.00
2022-12-09T11:07:05.247Z,267.47
2022-12-09T11:09:34.642Z,33.47
2022-12-09T11:12:03.411Z,29.70
2022-12-09T11:14:34.293Z,40.63
2022-12-09T11:17:14.854Z,61.57
2022-12-09T11:19:43.608Z,34.23
2022-12-09T11:22:38.528Z,35.80
2022-12-09T11:25:16.575Z,36.97
2022-12-09T11:27:50.177Z,40.43
2022-12-09T11:30:19.130Z,39.63
2022-12-09T11:32:55.799Z,37.47
2022-12-09T11:35:27.748Z,33.63
2022-12-09T11:37:55.637Z,35.37
2022-12-09T11:40:26.461Z,35.57
2022-12-09T11:42:54.598Z,33.03
2022-12-09T11:45:24.467Z,31.63
2022-12-09T11:48:25.888Z,31.80
2022-12-09T11:50:49.387Z,36.40
2022-12-09T11:53:24.943Z,33.40
2022-12-09T11:55:59.095Z,34.13
2022-12-09T11:58:28.915Z,37.60
2022-12-09T12:00:59.365Z,37.40
2022-12-09T12:03:37.371Z,33.70
2022-12-09T12:06:06.827Z,34.07
2022-12-09T12:08:38.144Z,28.87
2022-12-09T12:11:13.461Z,35.97
2022-12-09T12:13:45.767Z,30.90
2022-12-09T12:16:17.383Z,30.37
2022-12-09T12:18:48.662Z,30.97
2022-12-09T12:21:31.090Z,32.80
2022-12-09T12:24:27.505Z,34.77
2022-12-09T12:27:01.111Z,32.70
2022-12-09T12:29:43.843Z,34.77
2022-12-09T12:32:18.445Z,31.60
2022-12-09T12:34:51.420Z,29.77
2022-12-09T12:37:28.616Z,34.73
2022-12-09T12:40:00.363Z,29.83
2022-12-09T12:42:33.681Z,33.77
2022-12-09T12:45:20.635Z,31.95
2022-12-09T12:47:52.843Z,34.27
2022-12-09T12:50:35.091Z,36.77
2022-12-09T12:53:06.791Z,35.27
2022-12-09T12:55:42.467Z,35.53
2022-12-09T12:58:12.265Z,29.73
2022-12-09T13:00:43.355Z,29.23
2022-12-09T13:03:28.934Z,35.80
2022-12-09T13:05:59.722Z,34.70
2022-12-09T13:08:29.340Z,36.25
2022-12-09T13:10:57.965Z,38.40
2022-12-09T13:13:26.868Z,35.53
2022-12-09T13:15:55.686Z,42.60
2022-12-09T13:18:26.625Z,36.87
2022-12-09T13:20:55.067Z,36.90
2022-12-09T13:23:34.736Z,34.97
2022-12-09T13:26:07.852Z,35.73
2022-12-09T13:28:48.227Z,30.63
2022-12-09T13:31:18.994Z,34.27
2022-12-09T13:33:51.830Z,42.47
2022-12-09T13:36:21.100Z,36.00
2022-12-09T13:38:50.120Z,34.47
2022-12-09T13:41:56.478Z,42.10
2022-12-09T13:44:26.312Z,38.37
2022-12-09T13:46:53.900Z,33.00
2022-12-09T13:49:22.049Z,41.27
2022-12-09T13:51:51.642Z,38.27
2022-12-09T13:54:21.626Z,37.20
2022-12-09T13:57:03.265Z,45.83
2022-12-09T13:59:39.252Z,35.20
2022-12-09T14:02:14.918Z,35.90
2022-12-09T14:04:48.359Z,41.10
2022-12-09T14:07:22.899Z,36.13
2022-12-09T14:09:54.332Z,34.00
2022-12-09T14:12:42.571Z,39.63
2022-12-09T14:15:28.493Z,40.73
2022-12-09T14:18:00.928Z,47.50
2022-12-09T14:20:32.966Z,43.53
2022-12-09T14:23:14.702Z,38.33
2022-12-09T14:25:55.193Z,37.73
2022-12-09T14:28:36.265Z,41.73
2022-12-09T14:31:08.613Z,37.50
2022-12-09T14:33:37.724Z,48.83
2022-12-09T14:36:07.192Z,49.20
2022-12-09T14:38:54.468Z,43.13
2022-12-09T14:41:31.196Z,47.10
2022-12-09T14:44:10.015Z,37.97
2022-12-09T14:46:38.695Z,45.93
2022-12-09T14:49:13.263Z,41.17
2022-12-09T14:51:45.256Z,44.90
2022-12-09T14:54:14.625Z,53.47
2022-12-09T14:56:46.345Z,44.77
2022-12-09T14:59:18.456Z,47.60
2022-12-09T15:01:53.919Z,54.90
2022-12-09T15:04:26.117Z,47.30
2022-12-09T15:07:10.264Z,45.70
2022-12-09T15:09:37.931Z,51.67
2022-12-09T15:12:11.197Z,51.70
2022-12-09T15:14:39.233Z,71.77
2022-12-09T15:17:07.086Z,55.77
2022-12-09T15:19:59.789Z,62.30
2022-12-09T15:22:24.227Z,57.30
2022-12-09T15:24:52.439Z,59.10
2022-12-09T15:27:22.797Z,65.67
2022-12-09T15:29:50.978Z,60.00
2022-12-09T15:32:24.018Z,66.53
2022-12-09T15:34:51.751Z,61.17
2022-12-09T15:37:20.500Z,69.90
2022-12-09T15:39:52.076Z,72.30
2022-12-09T15:42:25.917Z,78.60
2022-12-09T15:44:54.982Z,77.40
2022-12-09T15:47:25.840Z,69.53
2022-12-09T15:49:54.788Z,77.47
2022-12-09T15:52:24.987Z,69.60
2022-12-09T15:54:53.032Z,81.00
2022-12-09T15:57:23.011Z,67.17
2022-12-09T15:59:55.873Z,75.87
2022-12-09T16:02:26.501Z,79.63
2022-12-09T16:04:55.883Z,88.33
2022-12-09T16:07:25.198Z,73.50
2022-12-09T16:10:08.393Z,71.70
2022-12-09T16:12:37.855Z,76.60
2022-12-09T16:15:06.601Z,85.00
2022-12-09T16:17:37.641Z,83.67
2022-12-09T16:20:22.917Z,77.73
2022-12-09T16:22:51.272Z,91.37
2022-12-09T16:25:21.844Z,84.53
2022-12-09T16:27:51.817Z,68.70
2022-12-09T16:30:20.359Z,66.27
2022-12-09T16:32:48.263Z,72.60
2022-12-09T16:35:24.149Z,72.70
2022-12-09T16:38:10.792Z,71.40
2022-12-09T16:40:56.709Z,65.60
2022-12-09T16:43:26.222Z,78.20
2022-12-09T16:45:54.221Z,87.03
2022-12-09T16:48:22.693Z,85.90
2022-12-09T16:50:51.584Z,99.90
2022-12-09T16:53:20.591Z,106.10
2022-12-09T16:55:52.337Z,100.37
2022-12-09T16:58:19.921Z,79.07
2022-12-09T17:00:49.111Z,76.47
2022-12-09T17:03:18.963Z,81.20
2022-12-09T17:05:48.105Z,79.17
2022-12-09T17:08:15.955Z,78.27
2022-12-09T17:10:43.724Z,77.43
2022-12-09T17:13:12.141Z,70.23
2022-12-09T17:15:41.054Z,68.23
2022-12-09T17:18:10.246Z,76.93
2022-12-09T17:20:38.336Z,79.27
2022-12-09T17:23:06.076Z,74.23
2022-12-09T17:25:33.953Z,81.77
2022-12-09T17:28:04.629Z,75.63
2022-12-09T17:30:32.291Z,79.70
2022-12-09T17:33:00.227Z,71.70
2022-12-09T17:35:29.293Z,73.67
2022-12-09T17:37:56.784Z,78.43
2022-12-09T17:40:24.266Z,74.17
2022-12-09T17:42:51.829Z,72.50
2022-12-09T17:45:19.498Z,72.03
2022-12-09T17:47:49.002Z,69.33
2022-12-09T17:50:16.604Z,75.23
2022-12-09T17:52:45.787Z,71.60
2022-12-09T17:55:13.644Z,77.47
2022-12-09T17:57:41.231Z,65.50
2022-12-09T18:00:10.622Z,67.90
2022-12-09T18:02:38.538Z,73.60
2022-12-09T18:05:06.397Z,80.93
2022-12-09T18:07:33.947Z,89.13
2022-12-09T18:10:02.927Z,78.40
2022-12-09T18:12:30.773Z,91.77
2022-12-09T18:14:58.474Z,81.90
2022-12-09T18:17:26.057Z,77.27
2022-12-09T18:19:54.371Z,88.50
2022-12-09T18:22:22.038Z,84.63
2022-12-09T18:24:50.210Z,81.43
2022-12-09T18:27:19.390Z,86.70
2022-12-09T18:29:47.126Z,78.87
2022-12-09T18:32:14.939Z,77.63
2022-12-09T18:34:46.443Z,68.80
2022-12-09T18:37:14.115Z,84.23
2022-12-09T18:39:42.164Z,74.17
2022-12-09T18:42:09.825Z,68.63
2022-12-09T18:44:38.953Z,78.40
2022-12-09T18:47:06.719Z,73.20
2022-12-09T18:49:34.420Z,79.60
2022-12-09T18:52:03.569Z,83.13
2022-12-09T18:54:33.314Z,80.23
2022-12-09T18:57:01.999Z,74.70
2022-12-09T18:59:33.084Z,85.63
2022-12-09T19:02:02.310Z,81.40
2022-12-09T19:04:30.486Z,71.17
2022-12-09T19:06:59.980Z,76.57
2022-12-09T19:09:28.613Z,75.83
2022-12-09T19:11:56.129Z,81.57
2022-12-09T19:14:24.245Z,78.70
2022-12-09T19:16:52.131Z,87.80
2022-12-09T19:19:21.628Z,76.33
2022-12-09T19:21:49.192Z,83.80
2022-12-09T19:24:17.732Z,81.27
2022-12-09T19:26:45.596Z,77.40
2022-12-09T19:29:13.848Z,80.97
2022-12-09T19:31:42.408Z,74.30
2022-12-09T19:34:16.569Z,88.77
2022-12-09T19:36:46.052Z,80.73
2022-12-09T19:39:14.338Z,77.53
2022-12-09T19:41:43.083Z,71.50
2022-12-09T19:44:11.467Z,83.47
2022-12-09T19:46:39.427Z,71.30
2022-12-09T19:49:07.493Z,78.43
2022-12-09T19:51:35.236Z,74.10
2022-12-09T19:54:04.265Z,69.20
2022-12-09T19:56:32.080Z,78.27
2022-12-09T19:59:00.055Z,76.70
2022-12-09T20:01:28.743Z,70.67
2022-12-09T20:03:57.235Z,79.90
2022-12-09T20:06:25.113Z,90.17
2022-12-09T20:08:52.647Z,89.47
2022-12-09T20:11:22.488Z,86.53
2022-12-09T20:13:49.998Z,85.63
2022-12-09T20:16:19.052Z,83.07
2022-12-09T20:18:48.582Z,85.13
2022-12-09T20:21:17.290Z,77.93
2022-12-09T20:23:45.538Z,86.13
2022-12-09T20:26:14.282Z,80.37
2022-12-09T20:28:43.954Z,82.63
2022-12-09T20:31:12.633Z,85.87
2022-12-09T20:33:40.584Z,88.60
2022-12-09T20:36:09.139Z,88.70
2022-12-09T20:38:36.962Z,85.53
2022-12-09T20:41:05.649Z,86.57
2022-12-09T20:43:39.484Z,83.80
2022-12-09T20:46:10.223Z,80.90
2022-12-09T20:48:38.510Z,72.87
2022-12-09T20:51:06.540Z,81.83
2022-12-09T20:53:34.235Z,85.40
2022-12-09T20:56:02.330Z,78.77
2022-12-09T20:58:30.016Z,80.07
2022-12-09T21:00:57.695Z,81.03
2022-12-09T21:03:26.779Z,84.47
2022-12-09T21:05:57.230Z,87.93
2022-12-09T21:08:31.128Z,72.63
2022-12-09T21:11:02.958Z,73.27
2022-12-09T21:13:30.728Z,77.77
2022-12-09T21:16:03.509Z,74.97
2022-12-09T21:18:32.822Z,79.30
2022-12-09T21:21:00.710Z,83.47
2022-12-09T21:23:35.313Z,73.80
2022-12-09T21:26:06.611Z,79.97
2022-12-09T21:28:34.265Z,78.97
2022-12-09T21:31:06.781Z,83.50
2022-12-09T21:33:35.762Z,85.17
2022-12-09T21:36:05.706Z,82.67
2022-12-09T21:38:36.037Z,82.83
2022-12-09T21:41:04.853Z,86.63
2022-12-09T21:43:33.018Z,98.77
2022-12-09T21:46:02.620Z,91.93
2022-12-09T21:48:30.341Z,93.53
2022-12-09T21:50:59.823Z,83.33
2022-12-09T21:53:27.416Z,83.63
2022-12-09T21:55:55.071Z,93.33
2022-12-09T21:58:22.771Z,79.57
2022-12-09T22:00:50.291Z,81.53
2022-12-09T22:03:17.899Z,71.90
2022-12-09T22:05:45.408Z,72.43
2022-12-09T22:08:14.469Z,78.67
2022-12-09T22:10:42.145Z,76.53
2022-12-09T22:13:10.254Z,81.50
2022-12-09T22:15:37.849Z,72.97
2022-12-09T22:18:05.509Z,78.93
2022-12-09T22:21:07.867Z,79.20
2022-12-09T22:23:22.527Z,76.73
2022-12-09T22:25:50.005Z,72.47
2022-12-09T22:28:17.689Z,82.53
2022-12-09T22:30:45.217Z,74.20
2022-12-09T22:33:12.890Z,76.70
2022-12-09T22:35:40.478Z,78.23
2022-12-09T22:38:14.751Z,72.43
2022-12-09T22:40:44.207Z,72.97
2022-12-09T22:43:11.763Z,69.83
2022-12-09T22:45:39.288Z,66.90
2022-12-09T22:48:07.225Z,69.27
2022-12-09T22:50:36.087Z,70.67
2022-12-09T22:53:03.703Z,66.10
2022-12-09T22:55:31.938Z,68.43
2022-12-09T22:58:00.908Z,74.80
2022-12-09T23:00:28.418Z,73.67
2022-12-09T23:02:55.994Z,76.37
2022-12-09T23:05:23.702Z,72.93
2022-12-09T23:07:51.388Z,79.27
2022-12-09T23:10:19.189Z,78.03
2022-12-09T23:12:46.725Z,79.60
2022-12-09T23:15:15.889Z,73.27
2022-12-09T23:17:43.430Z,75.30
2022-12-09T23:20:11.484Z,73.03
2022-12-09T23:22:38.987Z,79.43
2022-12-09T23:25:06.822Z,83.20
2022-12-09T23:27:34.425Z,78.90
2022-12-09T23:30:01.944Z,79.77
2022-12-09T23:32:33.361Z,83.50
2022-12-09T23:35:05.854Z,83.80
2022-12-09T23:37:34.921Z,67.73
2022-12-09T23:40:02.556Z,76.57
2022-12-09T23:42:30.063Z,74.47
2022-12-09T23:44:57.618Z,78.70
2022-12-09T23:47:25.176Z,77.77
2022-12-09T23:49:54.576Z,75.33
2022-12-09T23:52:22.173Z,78.53
2022-12-09T23:54:49.765Z,84.10
2022-12-09T23:57:17.287Z,82.70
2022-12-09T23:59:44.853Z,79.67
